createdAt,value
2019-02-07T00:00:24.268Z,100778.36
2019-02-07T00:02:51.226Z,100774.03
2019-02-07T00:05:18.157Z,100772.67
2019-02-07T00:07:45.131Z,100766.14
2019-02-07T00:10:12.609Z,100765.28
2019-02-07T00:12:39.743Z,100753.19
2019-02-07T00:15:07.215Z,100756.48
2019-02-07T00:17:34.365Z,100745.13
2019-02-07T00:20:01.292Z,100737.70
2019-02-07T00:22:28.252Z,100738.97
2019-02-07T00:24:55.198Z,100738.63
2019-02-07T00:27:22.153Z,100725.07
2019-02-07T00:29:49.090Z,100723.33
2019-02-07T00:32:16.051Z,100724.05
2019-02-07T00:34:43.275Z,100713.60
2019-02-07T00:37:10.233Z,100715.86
2019-02-07T00:39:37.262Z,100723.94
2019-02-07T00:42:04.225Z,100712.26
2019-02-07T00:44:31.171Z,100703.82
2019-02-07T00:46:58.137Z,100700.89
2019-02-07T00:49:25.062Z,100694.42
2019-02-07T00:51:52.412Z,100693.86
2019-02-07T00:54:19.349Z,100684.70
2019-02-07T00:56:46.305Z,100679.34
2019-02-07T00:59:13.345Z,100689.72
2019-02-07T01:01:40.257Z,100672.83
2019-02-07T01:04:07.211Z,100668.11
2019-02-07T01:06:34.171Z,100666.81
2019-02-07T01:09:01.157Z,100666.44
2019-02-07T01:11:28.476Z,100660.30
2019-02-07T01:13:55.446Z,100654.23
2019-02-07T01:16:22.462Z,100646.52
2019-02-07T01:18:49.466Z,100641.39
2019-02-07T01:21:16.391Z,100632.55
2019-02-07T01:23:43.384Z,100629.19
2019-02-07T01:26:10.435Z,100616.78
2019-02-07T01:28:37.802Z,100618.53
2019-02-07T01:31:04.734Z,100609.42
2019-02-07T01:33:31.721Z,100604.26
2019-02-07T01:35:58.684Z,100599.05
2019-02-07T01:38:25.690Z,100589.49
2019-02-07T01:40:52.634Z,100594.83
2019-02-07T01:43:19.622Z,100594.91
2019-02-07T01:45:46.553Z,100587.47
2019-02-07T01:48:13.930Z,100584.61
2019-02-07T01:50:40.866Z,100592.45
2019-02-07T01:53:08.244Z,100569.41
2019-02-07T01:55:35.199Z,100564.12
2019-02-07T01:58:02.370Z,100570.72
2019-02-07T02:00:29.275Z,100564.73
2019-02-07T02:02:56.272Z,100560.02
2019-02-07T02:05:23.215Z,100552.63
2019-02-07T02:07:50.507Z,100557.42
2019-02-07T02:10:19.874Z,100547.26
2019-02-07T02:12:46.891Z,100541.65
2019-02-07T02:15:24.071Z,100529.13
2019-02-07T02:17:46.616Z,100527.09
2019-02-07T02:20:14.431Z,100526.25
2019-02-07T02:22:41.697Z,100521.09
2019-02-07T02:25:09.446Z,100523.31
2019-02-07T02:27:36.441Z,100514.50
2019-02-07T02:30:06.937Z,100508.89
2019-02-07T02:32:33.964Z,100496.87
2019-02-07T02:35:00.900Z,100497.63
2019-02-07T02:37:27.875Z,100496.78
2019-02-07T02:39:55.152Z,100489.34
2019-02-07T02:42:22.202Z,100484.34
2019-02-07T02:44:49.139Z,100481.83
2019-02-07T02:47:16.144Z,100483.45
2019-02-07T02:49:43.088Z,100475.52
2019-02-07T02:52:10.034Z,100476.46
2019-02-07T02:54:43.768Z,100467.84
2019-02-07T02:57:11.005Z,100464.31
2019-02-07T02:59:37.982Z,100455.70
2019-02-07T03:02:21.647Z,100451.84
2019-02-07T03:04:54.902Z,100455.25
2019-02-07T03:07:33.930Z,100449.82
2019-02-07T03:10:30.170Z,100448.60
2019-02-07T03:13:28.631Z,100448.36
2019-02-07T03:16:14.116Z,100444.42
2019-02-07T03:19:09.827Z,100439.18
2019-02-07T03:21:59.143Z,100430.65
2019-02-07T03:24:44.473Z,100430.81
2019-02-07T03:27:49.689Z,100426.20
2019-02-07T03:30:36.224Z,100417.97
2019-02-07T03:33:31.877Z,100405.42
2019-02-07T03:36:06.323Z,100401.69
2019-02-07T03:39:02.179Z,100395.96
2019-02-07T03:41:45.727Z,100400.30
2019-02-07T03:44:35.498Z,100385.42
2019-02-07T03:47:33.066Z,100389.21
2019-02-07T03:50:14.980Z,100371.88
2019-02-07T03:52:52.767Z,100369.89
2019-02-07T03:55:39.353Z,100360.67
2019-02-07T03:58:35.030Z,100353.41
2019-02-07T04:01:21.572Z,100349.56
2019-02-07T04:04:00.067Z,100338.47
2019-02-07T04:06:42.659Z,100333.42
2019-02-07T04:09:24.106Z,100327.34
2019-02-07T04:12:16.693Z,100316.80
2019-02-07T04:15:05.632Z,100312.47
2019-02-07T04:17:44.433Z,100305.16
2019-02-07T04:20:34.044Z,100301.52
2019-02-07T04:23:26.632Z,100291.52
2019-02-07T04:26:11.874Z,100292.03
2019-02-07T04:28:57.457Z,100282.13
2019-02-07T04:31:46.543Z,100270.86
2019-02-07T04:34:33.120Z,100269.60
2019-02-07T04:37:20.053Z,100263.56
2019-02-07T04:40:05.709Z,100256.52
2019-02-07T04:42:52.240Z,100253.02
2019-02-07T04:45:30.611Z,100249.98
2019-02-07T04:48:15.675Z,100241.83
2019-02-07T04:51:01.364Z,100238.02
2019-02-07T04:53:44.879Z,100242.64
2019-02-07T04:56:43.452Z,100229.66
2019-02-07T04:59:23.201Z,100232.22
2019-02-07T05:02:08.356Z,100226.63
2019-02-07T05:04:54.664Z,100221.02
2019-02-07T05:07:56.380Z,100221.80
2019-02-07T05:10:41.593Z,100215.52
2019-02-07T05:13:26.753Z,100210.69
2019-02-07T05:16:16.382Z,100204.64
2019-02-07T05:19:21.063Z,100203.59
2019-02-07T05:22:13.699Z,100202.24
2019-02-07T05:24:48.403Z,100199.25
2019-02-07T05:27:35.108Z,100194.81
2019-02-07T05:30:26.986Z,100192.27
2019-02-07T05:33:16.375Z,100185.95
2019-02-07T05:36:01.460Z,100183.99
2019-02-07T05:39:06.082Z,100181.84
2019-02-07T05:41:52.647Z,100176.69
2019-02-07T05:44:45.139Z,100174.05
2019-02-07T05:47:40.599Z,100170.82
2019-02-07T05:50:27.522Z,100163.35
2019-02-07T05:53:19.856Z,100154.35
2019-02-07T05:55:57.461Z,100154.27
2019-02-07T05:58:44.009Z,100153.46
2019-02-07T06:01:39.379Z,100155.65
2019-02-07T06:04:37.943Z,100148.53
2019-02-07T06:07:23.194Z,100140.39
2019-02-07T06:10:15.918Z,100142.85
2019-02-07T06:13:06.156Z,100138.36
2019-02-07T06:16:08.085Z,100140.01
2019-02-07T06:18:53.324Z,100141.36
2019-02-07T06:21:29.885Z,100131.86
2019-02-07T06:24:31.833Z,100131.91
2019-02-07T06:27:24.488Z,100133.09
2019-02-07T06:30:09.731Z,100121.75
2019-02-07T06:32:54.540Z,100115.42
2019-02-07T06:35:30.873Z,100110.45
2019-02-07T06:38:04.639Z,100106.98
2019-02-07T06:40:50.110Z,100092.49
2019-02-07T06:43:32.096Z,100081.63
2019-02-07T06:46:15.960Z,100085.86
2019-02-07T06:49:01.218Z,100078.44
2019-02-07T06:51:48.043Z,100077.98
2019-02-07T06:54:26.941Z,100070.98
2019-02-07T06:57:13.602Z,100061.79
2019-02-07T06:59:59.007Z,100063.38
2019-02-07T07:02:34.181Z,100055.03
2019-02-07T07:05:27.472Z,100047.74
2019-02-07T07:08:05.466Z,100050.72
2019-02-07T07:10:57.592Z,100048.59
2019-02-07T07:13:35.314Z,100045.45
2019-02-07T07:16:26.959Z,100039.14
2019-02-07T07:19:12.462Z,100032.71
2019-02-07T07:21:57.977Z,100041.80
2019-02-07T07:24:44.584Z,100052.66
2019-02-07T07:27:27.628Z,100041.16
2019-02-07T07:30:08.133Z,100047.53
2019-02-07T07:32:57.298Z,100037.94
2019-02-07T07:35:52.921Z,100039.36
2019-02-07T07:38:39.899Z,100042.56
2019-02-07T07:41:32.622Z,100039.56
2019-02-07T07:44:31.287Z,100040.94
2019-02-07T07:47:35.521Z,100034.75
2019-02-07T07:50:28.822Z,100051.45
2019-02-07T07:53:16.286Z,100036.30
2019-02-07T07:55:54.770Z,100037.35
2019-02-07T07:58:40.119Z,100029.64
2019-02-07T08:01:28.187Z,100032.72
2019-02-07T08:04:13.387Z,100039.15
2019-02-07T08:07:05.695Z,100036.22
2019-02-07T08:09:50.712Z,100031.22
2019-02-07T08:12:37.270Z,100030.55
2019-02-07T08:15:41.387Z,100027.58
2019-02-07T08:18:23.561Z,100030.56
2019-02-07T08:21:12.899Z,100035.59
2019-02-07T08:23:58.709Z,100024.31
2019-02-07T08:27:03.344Z,100036.15
2019-02-07T08:29:48.094Z,100026.79
2019-02-07T08:32:37.568Z,100038.45
2019-02-07T08:35:19.662Z,100025.43
2019-02-07T08:38:02.229Z,100037.45
2019-02-07T08:40:37.812Z,100031.79
2019-02-07T08:43:20.908Z,100028.94
2019-02-07T08:46:19.516Z,100033.30
2019-02-07T08:49:13.510Z,100029.07
2019-02-07T08:51:59.153Z,100034.42
2019-02-07T08:54:47.533Z,100024.46
2019-02-07T08:57:36.873Z,100023.03
2019-02-07T09:00:33.271Z,100024.64
2019-02-07T09:03:11.132Z,100029.34
2019-02-07T09:06:01.124Z,100024.43
2019-02-07T09:08:45.030Z,100013.94
2019-02-07T09:11:30.403Z,100019.35
2019-02-07T09:14:15.303Z,100013.11
2019-02-07T09:16:58.738Z,100010.66
2019-02-07T09:19:47.177Z,100019.38
2019-02-07T09:22:39.315Z,100009.50
2019-02-07T09:25:24.572Z,100011.01
2019-02-07T09:28:09.666Z,100010.21
2019-02-07T09:31:01.820Z,100008.41
2019-02-07T09:33:48.368Z,100018.67
2019-02-07T09:36:39.139Z,100017.84
2019-02-07T09:39:25.976Z,100031.03
2019-02-07T09:42:05.389Z,100022.06
2019-02-07T09:44:55.643Z,100022.89
2019-02-07T09:47:41.060Z,100025.81
2019-02-07T09:50:18.670Z,100023.67
2019-02-07T09:53:24.247Z,100030.97
2019-02-07T09:56:19.544Z,100029.14
2019-02-07T09:59:15.194Z,100033.16
2019-02-07T10:01:52.960Z,100034.46
2019-02-07T10:04:45.543Z,100030.28
2019-02-07T10:07:23.295Z,100033.13
2019-02-07T10:10:15.581Z,100031.98
2019-02-07T10:13:20.285Z,100032.74
2019-02-07T10:16:06.347Z,100038.39
2019-02-07T10:18:48.909Z,100037.40
2019-02-07T10:21:44.817Z,100032.95
2019-02-07T10:24:46.308Z,100040.44
2019-02-07T10:27:35.806Z,100045.67
2019-02-07T10:30:30.051Z,100055.70
2019-02-07T10:33:25.682Z,100059.22
2019-02-07T10:36:05.559Z,100052.86
2019-02-07T10:38:40.039Z,100048.29
2019-02-07T10:41:24.633Z,100040.61
2019-02-07T10:44:10.114Z,100048.59
2019-02-07T10:46:55.858Z,100046.02
2019-02-07T10:49:40.205Z,100051.94
2019-02-07T10:52:28.102Z,100050.02
2019-02-07T10:55:13.149Z,100048.32
2019-02-07T10:58:07.127Z,100057.82
2019-02-07T11:00:52.254Z,100053.23
2019-02-07T11:03:38.948Z,100056.39
2019-02-07T11:06:19.343Z,100057.09
2019-02-07T11:09:05.987Z,100058.48
2019-02-07T11:11:51.075Z,100059.42
2019-02-07T11:14:36.462Z,100061.00
2019-02-07T11:17:38.423Z,100053.96
2019-02-07T11:20:26.622Z,100068.62
2019-02-07T11:23:18.867Z,100066.94
2019-02-07T11:26:22.363Z,100054.25
2019-02-07T11:29:07.602Z,100052.52
2019-02-07T11:31:48.465Z,100047.30
2019-02-07T11:34:50.553Z,100045.00
2019-02-07T11:37:43.433Z,100040.64
2019-02-07T11:40:36.593Z,100035.73
2019-02-07T11:43:23.571Z,100028.80
2019-02-07T11:46:10.147Z,100015.30
2019-02-07T11:49:06.576Z,100018.30
2019-02-07T11:51:41.266Z,100022.12
2019-02-07T11:54:16.951Z,100021.66
2019-02-07T11:57:02.361Z,100010.97
2019-02-07T11:59:51.739Z,100018.30
2019-02-07T12:02:38.367Z,100016.08
2019-02-07T12:05:17.397Z,100022.98
2019-02-07T12:07:53.705Z,100027.63
2019-02-07T12:10:47.550Z,100027.94
2019-02-07T12:13:42.576Z,100029.67
2019-02-07T12:16:31.928Z,100028.47
2019-02-07T12:19:18.408Z,100032.91
2019-02-07T12:22:03.362Z,100032.92
2019-02-07T12:25:01.608Z,100029.44
2019-02-07T12:27:47.330Z,100029.34
2019-02-07T12:30:29.391Z,100017.41
2019-02-07T12:33:31.635Z,100017.11
2019-02-07T12:36:24.808Z,100017.56
2019-02-07T12:39:07.659Z,100022.16
2019-02-07T12:41:50.838Z,100021.47
2019-02-07T12:44:55.593Z,100023.40
2019-02-07T12:47:48.037Z,100021.44
2019-02-07T12:50:40.769Z,100016.55
2019-02-07T12:53:27.982Z,100029.28
2019-02-07T12:56:20.526Z,100022.39
2019-02-07T12:59:06.452Z,100021.20
2019-02-07T13:01:51.406Z,100016.72
2019-02-07T13:04:37.165Z,100027.16
2019-02-07T13:07:32.739Z,100024.52
2019-02-07T13:10:07.977Z,100023.63
2019-02-07T13:12:53.683Z,100011.77
2019-02-07T13:15:49.460Z,100007.03
2019-02-07T13:18:36.325Z,100003.61
2019-02-07T13:21:19.184Z,100007.68
2019-02-07T13:24:09.015Z,100011.12
2019-02-07T13:26:54.492Z,100007.77
2019-02-07T13:29:34.226Z,100020.06
2019-02-07T13:32:20.088Z,100017.41
2019-02-07T13:35:19.753Z,100021.50
2019-02-07T13:38:00.762Z,100018.42
2019-02-07T13:40:50.589Z,100006.42
2019-02-07T13:43:30.000Z,100027.25
2019-02-07T13:46:06.587Z,100030.03
2019-02-07T13:48:56.189Z,100022.54
2019-02-07T13:52:01.267Z,100031.23
2019-02-07T13:54:46.648Z,100021.04
2019-02-07T13:57:41.972Z,100034.58
2019-02-07T14:00:39.424Z,100041.05
2019-02-07T14:03:22.144Z,100033.64
2019-02-07T14:06:07.597Z,100044.19
2019-02-07T14:08:52.623Z,100051.80
2019-02-07T14:11:30.242Z,100046.50
2019-02-07T14:14:19.516Z,100045.22
2019-02-07T14:17:18.395Z,100042.47
2019-02-07T14:20:05.491Z,100043.98
2019-02-07T14:22:50.712Z,100037.98
2019-02-07T14:25:49.022Z,100045.27
2019-02-07T14:28:44.466Z,100039.11
2019-02-07T14:31:21.132Z,100038.66
2019-02-07T14:34:13.668Z,100041.73
2019-02-07T14:36:58.539Z,100042.54
2019-02-07T14:39:45.560Z,100034.23
2019-02-07T14:42:31.553Z,100048.44
2019-02-07T14:45:16.944Z,100060.63
2019-02-07T14:47:43.922Z,100052.86
2019-02-07T14:50:15.055Z,100058.53
2019-02-07T14:52:40.265Z,100060.89
2019-02-07T14:55:09.109Z,100058.67
2019-02-07T14:57:36.614Z,100056.23
2019-02-07T15:00:07.377Z,100060.84
2019-02-07T15:02:34.354Z,100057.25
2019-02-07T15:05:01.290Z,100056.33
2019-02-07T15:07:28.296Z,100053.42
2019-02-07T15:09:55.212Z,100055.23
2019-02-07T15:12:22.152Z,100060.55
2019-02-07T15:14:49.069Z,100057.26
2019-02-07T15:17:16.070Z,100051.19
2019-02-07T15:19:43.005Z,100065.30
2019-02-07T15:22:09.930Z,100053.08
2019-02-07T15:24:36.847Z,100062.39
2019-02-07T15:27:03.892Z,100058.05
2019-02-07T15:29:30.821Z,100062.42
2019-02-07T15:31:57.832Z,100059.58
2019-02-07T15:34:25.168Z,100062.98
2019-02-07T15:36:53.270Z,100060.17
2019-02-07T15:39:20.195Z,100058.86
2019-02-07T15:41:47.468Z,100056.97
2019-02-07T15:44:14.385Z,100051.61
2019-02-07T15:46:41.362Z,100057.20
2019-02-07T15:49:08.506Z,100057.16
2019-02-07T15:51:35.442Z,100053.64
2019-02-07T15:54:03.008Z,100056.73
2019-02-07T15:56:29.939Z,100047.86
2019-02-07T15:59:14.346Z,100061.63
2019-02-07T16:01:49.138Z,100058.07
2019-02-07T16:04:18.800Z,100046.19
2019-02-07T16:06:45.776Z,100053.82
2019-02-07T16:09:14.284Z,100052.22
2019-02-07T16:11:41.248Z,100055.20
2019-02-07T16:14:08.284Z,100048.65
2019-02-07T16:16:35.255Z,100059.55
2019-02-07T16:19:02.236Z,100059.88
2019-02-07T16:21:29.170Z,100062.28
2019-02-07T16:23:56.104Z,100063.04
2019-02-07T16:26:23.038Z,100062.40
2019-02-07T16:28:49.979Z,100067.65
2019-02-07T16:31:16.883Z,100060.48
2019-02-07T16:33:43.847Z,100068.77
2019-02-07T16:36:10.782Z,100076.09
2019-02-07T16:38:37.753Z,100070.53
2019-02-07T16:41:05.093Z,100074.78
2019-02-07T16:43:32.174Z,100075.84
2019-02-07T16:45:59.105Z,100082.06
2019-02-07T16:48:26.066Z,100097.63
2019-02-07T16:51:00.313Z,100086.80
2019-02-07T16:53:23.420Z,100085.73
2019-02-07T16:55:50.333Z,100089.53
2019-02-07T16:58:17.675Z,100091.75
2019-02-07T17:00:44.640Z,100094.87
2019-02-07T17:03:11.591Z,100092.44
2019-02-07T17:05:38.633Z,100094.96
2019-02-07T17:08:05.738Z,100106.84
2019-02-07T17:10:33.321Z,100111.19
2019-02-07T17:13:00.323Z,100118.59
2019-02-07T17:15:27.379Z,100114.89
2019-02-07T17:17:54.676Z,100117.73
2019-02-07T17:20:25.116Z,100123.15
2019-02-07T17:22:52.069Z,100118.89
2019-02-07T17:25:22.642Z,100125.94
2019-02-07T17:27:49.933Z,100128.17
2019-02-07T17:30:17.512Z,100133.11
2019-02-07T17:32:44.969Z,100136.54
2019-02-07T17:35:12.600Z,100134.92
2019-02-07T17:37:39.562Z,100136.59
2019-02-07T17:40:10.520Z,100144.77
2019-02-07T17:42:37.531Z,100144.84
2019-02-07T17:45:05.973Z,100143.20
2019-02-07T17:47:32.965Z,100158.09
2019-02-07T17:50:00.048Z,100164.27
2019-02-07T17:52:27.664Z,100165.84
2019-02-07T17:54:54.618Z,100163.19
2019-02-07T17:57:21.586Z,100178.61
2019-02-07T17:59:48.549Z,100181.52
2019-02-07T18:02:15.498Z,100182.51
2019-02-07T18:04:44.189Z,100187.11
2019-02-07T18:07:11.315Z,100181.77
2019-02-07T18:09:38.496Z,100184.23
2019-02-07T18:12:05.427Z,100192.87
2019-02-07T18:14:32.367Z,100191.91
2019-02-07T18:16:59.275Z,100188.32
2019-02-07T18:19:26.245Z,100189.45
2019-02-07T18:21:53.228Z,100190.56
2019-02-07T18:24:20.481Z,100194.09
2019-02-07T18:26:47.569Z,100193.69
2019-02-07T18:29:14.825Z,100193.09
2019-02-07T18:31:41.787Z,100195.84
2019-02-07T18:34:08.775Z,100184.73
2019-02-07T18:36:35.691Z,100203.30
2019-02-07T18:39:04.849Z,100193.17
2019-02-07T18:41:31.818Z,100199.11
2019-02-07T18:43:58.792Z,100199.03
2019-02-07T18:46:26.149Z,100197.35
2019-02-07T18:48:53.137Z,100206.61
2019-02-07T18:51:20.185Z,100208.62
2019-02-07T18:53:47.129Z,100206.40
2019-02-07T18:56:14.106Z,100206.84
2019-02-07T18:58:41.043Z,100215.52
2019-02-07T19:01:07.995Z,100215.52
2019-02-07T19:03:34.987Z,100218.05
2019-02-07T19:06:02.270Z,100213.09
2019-02-07T19:08:29.458Z,100212.12
2019-02-07T19:10:56.473Z,100216.05
2019-02-07T19:13:23.498Z,100213.05
2019-02-07T19:15:54.008Z,100211.73
2019-02-07T19:18:20.918Z,100219.75
2019-02-07T19:20:47.918Z,100223.34
2019-02-07T19:23:14.857Z,100223.84
2019-02-07T19:25:41.915Z,100226.11
2019-02-07T19:28:08.918Z,100220.18
2019-02-07T19:30:35.970Z,100227.11
2019-02-07T19:33:03.403Z,100218.31
2019-02-07T19:35:30.471Z,100222.80
2019-02-07T19:37:57.698Z,100229.30
2019-02-07T19:40:25.075Z,100229.36
2019-02-07T19:42:52.519Z,100230.78
2019-02-07T19:45:19.946Z,100241.14
2019-02-07T19:47:46.874Z,100239.08
2019-02-07T19:50:16.450Z,100246.34
2019-02-07T19:52:43.589Z,100250.20
2019-02-07T19:55:13.183Z,100255.00
2019-02-07T19:57:40.243Z,100257.00
2019-02-07T20:00:10.809Z,100258.57
2019-02-07T20:02:37.766Z,100263.05
2019-02-07T20:05:06.117Z,100259.42
2019-02-07T20:07:33.062Z,100264.81
2019-02-07T20:10:00.181Z,100259.55
2019-02-07T20:12:27.224Z,100263.77
2019-02-07T20:14:54.306Z,100268.53
2019-02-07T20:17:21.257Z,100269.33
2019-02-07T20:19:48.587Z,100272.56
2019-02-07T20:22:20.352Z,100277.31
2019-02-07T20:24:46.316Z,100276.12
2019-02-07T20:27:13.321Z,100283.03
2019-02-07T20:29:40.295Z,100283.75
2019-02-07T20:32:07.260Z,100285.69
2019-02-07T20:34:34.226Z,100294.80
2019-02-07T20:37:01.664Z,100291.22
2019-02-07T20:39:29.475Z,100301.06
2019-02-07T20:41:56.578Z,100300.06
2019-02-07T20:44:23.531Z,100300.28
2019-02-07T20:46:50.543Z,100306.17
2019-02-07T20:49:17.482Z,100303.84
2019-02-07T20:51:44.510Z,100311.42
2019-02-07T20:54:11.529Z,100307.87
2019-02-07T20:56:38.497Z,100308.61
2019-02-07T20:59:05.513Z,100311.26
2019-02-07T21:01:32.762Z,100310.07
2019-02-07T21:03:59.682Z,100306.57
2019-02-07T21:06:26.691Z,100319.01
2019-02-07T21:08:53.604Z,100316.91
2019-02-07T21:11:20.720Z,100329.36
2019-02-07T21:13:47.834Z,100332.43
2019-02-07T21:16:14.765Z,100326.95
2019-02-07T21:18:41.722Z,100327.27
2019-02-07T21:21:09.749Z,100334.16
2019-02-07T21:23:36.694Z,100333.72
2019-02-07T21:26:03.742Z,100342.02
2019-02-07T21:28:30.803Z,100344.17
2019-02-07T21:30:57.862Z,100343.88
2019-02-07T21:33:24.808Z,100346.97
2019-02-07T21:35:51.760Z,100353.44
2019-02-07T21:38:18.747Z,100346.32
2019-02-07T21:40:45.705Z,100359.28
2019-02-07T21:43:12.890Z,100358.38
2019-02-07T21:45:39.797Z,100356.34
2019-02-07T21:48:11.832Z,100361.34
2019-02-07T21:50:38.949Z,100240.53
2019-02-07T21:53:05.996Z,100373.84
2019-02-07T21:55:32.945Z,100367.83
2019-02-07T21:58:02.698Z,100368.73
2019-02-07T22:00:35.233Z,100379.48
2019-02-07T22:03:05.456Z,100381.59
2019-02-07T22:05:32.526Z,100383.64
2019-02-07T22:08:02.153Z,100400.30
2019-02-07T22:10:29.105Z,100387.03
2019-02-07T22:12:56.498Z,100393.36
2019-02-07T22:15:24.018Z,100387.75
2019-02-07T22:17:50.911Z,100398.56
2019-02-07T22:20:19.642Z,100404.22
2019-02-07T22:22:49.213Z,100406.81
2019-02-07T22:25:17.004Z,100408.91
2019-02-07T22:27:44.056Z,100411.12
2019-02-07T22:30:20.966Z,100408.47
2019-02-07T22:32:48.272Z,100406.22
2019-02-07T22:35:15.355Z,100399.26
2019-02-07T22:37:42.298Z,100404.81
2019-02-07T22:40:12.559Z,100410.66
2019-02-07T22:42:39.470Z,100407.11
2019-02-07T22:45:07.873Z,100418.03
2019-02-07T22:47:34.853Z,100415.33
2019-02-07T22:50:02.512Z,100427.67
2019-02-07T22:52:29.573Z,100424.83
2019-02-07T22:54:56.543Z,100414.25
2019-02-07T22:57:23.480Z,100432.02
2019-02-07T22:59:50.546Z,100414.25
2019-02-07T23:02:17.529Z,100422.73
2019-02-07T23:04:44.487Z,100423.48
2019-02-07T23:07:11.445Z,100426.37
2019-02-07T23:09:38.392Z,100430.98
2019-02-07T23:12:05.721Z,100432.73
2019-02-07T23:14:32.668Z,100430.28
2019-02-07T23:16:59.586Z,100430.77
2019-02-07T23:19:26.579Z,100435.66
2019-02-07T23:21:53.525Z,100437.90
2019-02-07T23:24:20.508Z,100438.67
2019-02-07T23:26:48.576Z,100432.25
2019-02-07T23:29:15.554Z,100440.55
2019-02-07T23:31:42.879Z,100454.08
2019-02-07T23:34:09.844Z,100448.92
2019-02-07T23:36:37.426Z,100452.33
2019-02-07T23:39:07.565Z,100442.78
2019-02-07T23:41:34.559Z,100450.53
2019-02-07T23:44:01.837Z,100456.14
2019-02-07T23:46:28.843Z,100452.52
2019-02-07T23:48:55.772Z,100462.61
2019-02-07T23:51:25.995Z,100459.06
2019-02-07T23:53:53.005Z,100457.85
2019-02-07T23:56:20.081Z,100454.48
2019-02-07T23:58:47.033Z,100456.06
